createdAt,value
2023-05-22T00:00:16.315Z,29.954
2023-05-22T00:05:16.336Z,29.955
2023-05-22T00:10:16.284Z,29.960
2023-05-22T00:15:16.156Z,29.962
2023-05-22T00:20:16.177Z,29.962
2023-05-22T00:25:16.193Z,29.966
2023-05-22T00:30:16.251Z,29.967
2023-05-22T00:35:16.327Z,29.969
2023-05-22T00:40:17.032Z,29.974
2023-05-22T00:45:16.297Z,29.980
2023-05-22T00:50:16.241Z,29.986
2023-05-22T00:55:16.363Z,29.991
2023-05-22T01:00:16.293Z,29.994
2023-05-22T01:05:16.290Z,29.998
2023-05-22T01:10:16.308Z,29.999
2023-05-22T01:15:16.309Z,30.004
2023-05-22T01:20:16.362Z,30.004
2023-05-22T01:25:16.314Z,30.008
2023-05-22T01:30:16.336Z,30.006
2023-05-22T01:35:16.387Z,30.012
2023-05-22T01:40:16.732Z,30.011
2023-05-22T01:45:16.568Z,30.012
2023-05-22T01:50:16.436Z,30.016
2023-05-22T01:55:16.370Z,30.019
2023-05-22T02:00:16.450Z,30.019
2023-05-22T02:05:16.311Z,30.017
2023-05-22T02:10:16.491Z,30.018
2023-05-22T02:15:16.622Z,30.020
2023-05-22T02:20:16.428Z,30.023
2023-05-22T02:25:16.445Z,30.023
2023-05-22T02:30:16.436Z,30.025
2023-05-22T02:35:16.947Z,30.025
2023-05-22T02:40:16.697Z,30.028
2023-05-22T02:45:16.644Z,30.028
2023-05-22T02:50:16.534Z,30.028
2023-05-22T02:55:16.598Z,30.029
2023-05-22T03:00:16.527Z,30.029
2023-05-22T03:05:16.595Z,30.031
2023-05-22T03:10:16.779Z,30.035
2023-05-22T03:15:16.594Z,30.034
2023-05-22T03:20:16.687Z,30.035
2023-05-22T03:25:16.511Z,30.035
2023-05-22T03:30:16.756Z,30.035
2023-05-22T03:35:16.754Z,30.037
2023-05-22T03:40:16.722Z,30.040
2023-05-22T03:45:16.690Z,30.040
2023-05-22T03:50:16.784Z,30.040
2023-05-22T03:55:16.595Z,30.040
2023-05-22T04:00:15.724Z,30.041
2023-05-22T04:05:15.682Z,30.042
2023-05-22T04:10:15.791Z,30.040
2023-05-22T04:15:15.718Z,30.040
2023-05-22T04:20:15.678Z,30.043
2023-05-22T04:25:15.736Z,30.043
2023-05-22T04:30:15.772Z,30.042
2023-05-22T04:35:15.735Z,30.045
2023-05-22T04:40:15.764Z,30.042
2023-05-22T04:45:15.732Z,30.044
2023-05-22T04:50:15.823Z,30.046
2023-05-22T04:55:15.835Z,30.048
2023-05-22T05:00:15.871Z,30.051
2023-05-22T05:05:15.903Z,30.052
2023-05-22T05:10:15.753Z,30.055
2023-05-22T05:15:15.923Z,30.056
2023-05-22T05:20:15.873Z,30.054
2023-05-22T05:25:15.881Z,30.059
2023-05-22T05:30:17.221Z,30.057
2023-05-22T05:35:15.898Z,30.058
2023-05-22T05:40:15.844Z,30.058
2023-05-22T05:45:15.873Z,30.056
2023-05-22T05:50:16.033Z,30.057
2023-05-22T05:55:15.920Z,30.061
2023-05-22T06:00:15.962Z,30.059
2023-05-22T06:05:15.927Z,30.058
2023-05-22T06:10:16.023Z,30.058
2023-05-22T06:15:16.024Z,30.059
2023-05-22T06:20:15.972Z,30.061
2023-05-22T06:25:15.962Z,30.063
2023-05-22T06:30:22.373Z,30.065
2023-05-22T06:35:15.995Z,30.065
2023-05-22T06:40:15.994Z,30.068
2023-05-22T06:45:16.035Z,30.069
2023-05-22T06:50:16.075Z,30.071
2023-05-22T06:55:15.972Z,30.073
2023-05-22T07:00:16.037Z,30.076
2023-05-22T07:05:16.015Z,30.076
2023-05-22T07:10:16.128Z,30.076
2023-05-22T07:15:16.113Z,30.075
2023-05-22T07:20:16.186Z,30.080
2023-05-22T07:25:16.120Z,30.082
2023-05-22T07:30:16.061Z,30.082
2023-05-22T07:35:16.279Z,30.083
2023-05-22T07:40:16.212Z,30.085
2023-05-22T07:45:16.137Z,30.083
2023-05-22T07:50:16.195Z,30.087
2023-05-22T07:55:16.267Z,30.090
2023-05-22T08:00:16.209Z,30.094
2023-05-22T08:05:16.339Z,30.094
2023-05-22T08:10:16.292Z,30.097
2023-05-22T08:15:16.167Z,30.100
2023-05-22T08:20:16.410Z,30.102
2023-05-22T08:25:16.184Z,30.107
2023-05-22T08:30:16.227Z,30.110
2023-05-22T08:35:17.013Z,30.110
2023-05-22T08:40:16.324Z,30.117
2023-05-22T08:45:16.463Z,30.118
2023-05-22T08:50:16.335Z,30.121
2023-05-22T08:55:16.340Z,30.124
2023-05-22T09:00:16.355Z,30.123
2023-05-22T09:05:16.596Z,30.124
2023-05-22T09:10:16.342Z,30.127
2023-05-22T09:15:16.374Z,30.130
2023-05-22T09:20:16.575Z,30.133
2023-05-22T09:25:16.517Z,30.135
2023-05-22T09:30:16.348Z,30.137
2023-05-22T09:35:16.459Z,30.139
2023-05-22T09:40:16.460Z,30.142
2023-05-22T09:45:16.420Z,30.145
2023-05-22T09:50:16.426Z,30.147
2023-05-22T09:55:16.527Z,30.149
2023-05-22T10:00:16.434Z,30.153
2023-05-22T10:05:16.632Z,30.153
2023-05-22T10:10:16.477Z,30.157
2023-05-22T10:15:16.628Z,30.160
2023-05-22T10:20:16.581Z,30.166
2023-05-22T10:25:16.439Z,30.168
2023-05-22T10:30:16.514Z,30.170
2023-05-22T10:35:16.587Z,30.172
2023-05-22T10:40:16.606Z,30.176
2023-05-22T10:45:16.551Z,30.182
2023-05-22T10:50:16.627Z,30.182
2023-05-22T10:55:16.524Z,30.185
2023-05-22T11:00:16.530Z,30.193
2023-05-22T11:05:16.657Z,30.193
2023-05-22T11:10:16.685Z,30.193
2023-05-22T11:15:16.640Z,30.196
2023-05-22T11:20:16.659Z,30.201
2023-05-22T11:25:16.732Z,30.203
2023-05-22T11:30:16.789Z,30.206
2023-05-22T11:35:16.684Z,30.211
2023-05-22T11:40:16.796Z,30.216
2023-05-22T11:45:16.819Z,30.219
2023-05-22T11:50:25.828Z,30.217
2023-05-22T11:55:16.648Z,30.224
2023-05-22T12:00:16.963Z,30.226
2023-05-22T12:05:16.684Z,30.229
2023-05-22T12:10:16.754Z,30.229
2023-05-22T12:15:16.778Z,30.232
2023-05-22T12:20:16.778Z,30.235
2023-05-22T12:25:16.789Z,30.236
2023-05-22T12:30:16.821Z,30.240
2023-05-22T12:35:17.015Z,30.243
2023-05-22T12:40:16.741Z,30.243
2023-05-22T12:45:16.806Z,30.243
2023-05-22T12:50:16.861Z,30.243
2023-05-22T12:55:16.820Z,30.245
2023-05-22T13:00:16.869Z,30.247
2023-05-22T13:05:17.073Z,30.248
2023-05-22T13:10:16.978Z,30.249
2023-05-22T13:15:16.821Z,30.251
2023-05-22T13:20:16.936Z,30.255
2023-05-22T13:25:16.959Z,30.255
2023-05-22T13:30:16.904Z,30.255
2023-05-22T13:35:16.900Z,30.258
2023-05-22T13:40:17.006Z,30.259
2023-05-22T13:45:17.015Z,30.261
2023-05-22T13:50:17.209Z,30.260
2023-05-22T13:55:16.936Z,30.263
2023-05-22T14:00:16.965Z,30.262
2023-05-22T14:05:16.966Z,30.261
2023-05-22T14:10:16.936Z,30.262
2023-05-22T14:15:16.994Z,30.268
2023-05-22T14:20:17.024Z,30.266
2023-05-22T14:25:17.264Z,30.267
2023-05-22T14:30:17.114Z,30.269
2023-05-22T14:35:17.570Z,30.268
2023-05-22T14:40:17.053Z,30.269
2023-05-22T14:45:17.153Z,30.268
2023-05-22T14:50:19.852Z,30.274
2023-05-22T14:55:17.218Z,30.271
2023-05-22T15:00:17.157Z,30.274
2023-05-22T15:05:17.265Z,30.279
2023-05-22T15:10:17.233Z,30.278
2023-05-22T15:15:17.180Z,30.281
2023-05-22T15:20:17.197Z,30.281
2023-05-22T15:25:17.198Z,30.279
2023-05-22T15:30:17.331Z,30.281
2023-05-22T15:35:17.224Z,30.281
2023-05-22T15:40:17.480Z,30.281
2023-05-22T15:45:17.310Z,30.281
2023-05-22T15:50:17.178Z,30.284
2023-05-22T15:55:17.182Z,30.283
2023-05-22T16:00:18.551Z,30.290
2023-05-22T16:05:17.122Z,30.292
2023-05-22T16:10:17.266Z,30.289
2023-05-22T16:15:17.327Z,30.287
2023-05-22T16:20:17.289Z,30.291
2023-05-22T16:25:17.411Z,30.289
2023-05-22T16:30:17.377Z,30.292
2023-05-22T16:35:17.328Z,30.290
2023-05-22T16:40:17.299Z,30.291
2023-05-22T16:45:17.285Z,30.290
2023-05-22T16:50:17.641Z,30.289
2023-05-22T16:55:17.296Z,30.293
2023-05-22T17:00:17.561Z,30.290
2023-05-22T17:05:17.434Z,30.291
2023-05-22T17:10:17.297Z,30.289
2023-05-22T17:15:17.393Z,30.287
2023-05-22T17:20:17.410Z,30.284
2023-05-22T17:25:17.343Z,30.283
2023-05-22T17:30:17.403Z,30.283
2023-05-22T17:35:17.505Z,30.282
2023-05-22T17:40:18.248Z,30.285
2023-05-22T17:45:15.840Z,30.281
2023-05-22T17:50:15.438Z,30.286
2023-05-22T17:55:15.462Z,30.284
2023-05-22T18:00:15.510Z,30.286
2023-05-22T18:05:15.479Z,30.289
2023-05-22T18:10:15.481Z,30.292
2023-05-22T18:15:15.644Z,30.289
2023-05-22T18:20:15.611Z,30.288
2023-05-22T18:25:15.465Z,30.293
2023-05-22T18:30:15.510Z,30.293
2023-05-22T18:35:15.522Z,30.289
2023-05-22T18:40:15.589Z,30.290
2023-05-22T18:45:15.528Z,30.289
2023-05-22T18:50:15.594Z,30.288
2023-05-22T18:55:15.531Z,30.289
2023-05-22T19:00:15.592Z,30.286
2023-05-22T19:05:15.574Z,30.286
2023-05-22T19:10:15.789Z,30.289
2023-05-22T19:15:15.717Z,30.290
2023-05-22T19:20:15.607Z,30.290
2023-05-22T19:25:15.732Z,30.293
2023-05-22T19:30:15.791Z,30.291
2023-05-22T19:35:15.595Z,30.286
2023-05-22T19:40:15.619Z,30.286
2023-05-22T19:45:15.645Z,30.284
2023-05-22T19:50:15.632Z,30.287
2023-05-22T19:55:15.765Z,30.284
2023-05-22T20:00:15.836Z,30.283
2023-05-22T20:05:15.637Z,30.283
2023-05-22T20:10:15.832Z,30.279
2023-05-22T20:15:15.791Z,30.277
2023-05-22T20:20:15.878Z,30.277
2023-05-22T20:25:16.117Z,30.276
2023-05-22T20:30:15.747Z,30.276
2023-05-22T20:35:15.727Z,30.277
2023-05-22T20:40:15.828Z,30.277
2023-05-22T20:45:16.135Z,30.274
2023-05-22T20:50:15.789Z,30.272
2023-05-22T20:55:15.828Z,30.272
2023-05-22T21:00:15.949Z,30.275
2023-05-22T21:05:15.923Z,30.273
2023-05-22T21:10:15.845Z,30.276
2023-05-22T21:15:15.898Z,30.274
2023-05-22T21:20:15.842Z,30.277
2023-05-22T21:25:15.907Z,30.277
2023-05-22T21:30:15.881Z,30.278
2023-05-22T21:35:15.878Z,30.277
2023-05-22T21:40:15.900Z,30.279
2023-05-22T21:45:15.899Z,30.276
2023-05-22T21:50:16.000Z,30.280
2023-05-22T21:55:15.930Z,30.280
2023-05-22T22:00:16.151Z,30.279
2023-05-22T22:05:15.840Z,30.282
2023-05-22T22:10:15.960Z,30.284
2023-05-22T22:15:16.057Z,30.281
2023-05-22T22:20:16.047Z,30.281
2023-05-22T22:25:15.923Z,30.281
2023-05-22T22:30:15.939Z,30.284
2023-05-22T22:35:15.997Z,30.286
2023-05-22T22:40:16.162Z,30.287
2023-05-22T22:45:16.148Z,30.288
2023-05-22T22:50:16.071Z,30.290
2023-05-22T22:55:15.996Z,30.292
2023-05-22T23:00:16.009Z,30.295
2023-05-22T23:05:16.338Z,30.296
2023-05-22T23:10:16.238Z,30.297
2023-05-22T23:15:16.014Z,30.299
2023-05-22T23:20:16.259Z,30.299
2023-05-22T23:25:16.280Z,30.303
2023-05-22T23:30:16.206Z,30.302
2023-05-22T23:35:16.104Z,30.305
2023-05-22T23:40:16.181Z,30.304
2023-05-22T23:45:16.215Z,30.304
2023-05-22T23:50:16.295Z,30.308
2023-05-22T23:55:16.208Z,30.310
